createdAt,value
2019-05-05T00:02:31.021Z,60.07
2019-05-05T00:05:08.731Z,59.71
2019-05-05T00:07:38.290Z,59.41
2019-05-05T00:10:10.441Z,59.48
2019-05-05T00:12:55.162Z,59.72
2019-05-05T00:15:44.935Z,59.74
2019-05-05T00:18:14.875Z,59.59
2019-05-05T00:20:44.686Z,59.55
2019-05-05T00:23:14.657Z,59.47
2019-05-05T00:25:44.726Z,59.80
2019-05-05T00:28:15.458Z,59.97
2019-05-05T00:30:44.973Z,59.77
2019-05-05T00:33:14.634Z,59.79
2019-05-05T00:35:45.138Z,59.74
2019-05-05T00:38:14.765Z,59.38
2019-05-05T00:40:44.423Z,59.64
2019-05-05T00:43:14.907Z,59.68
2019-05-05T00:45:46.020Z,59.74
2019-05-05T00:48:21.219Z,60.32
2019-05-05T00:50:51.878Z,60.18
2019-05-05T00:53:21.485Z,60.25
2019-05-05T00:55:50.991Z,60.16
2019-05-05T00:58:20.500Z,60.11
2019-05-05T01:01:08.199Z,60.03
2019-05-05T01:03:38.785Z,59.78
2019-05-05T01:06:20.787Z,59.85
2019-05-05T01:08:50.287Z,59.90
2019-05-05T01:11:20.844Z,59.78
2019-05-05T01:13:50.345Z,59.87
2019-05-05T01:16:19.862Z,59.64
2019-05-05T01:18:49.356Z,59.78
2019-05-05T01:21:18.865Z,59.86
2019-05-05T01:23:48.518Z,59.95
2019-05-05T01:26:18.022Z,59.91
2019-05-05T01:28:47.589Z,59.86
2019-05-05T01:31:18.867Z,59.76
2019-05-05T01:33:58.385Z,59.77
2019-05-05T01:36:27.912Z,59.94
2019-05-05T01:39:19.308Z,59.83
2019-05-05T01:41:55.374Z,59.87
2019-05-05T01:44:24.888Z,59.73
2019-05-05T01:46:55.103Z,59.75
2019-05-05T01:49:26.298Z,59.74
2019-05-05T01:51:55.898Z,59.71
2019-05-05T01:54:25.405Z,59.83
2019-05-05T01:56:55.519Z,59.69
2019-05-05T01:59:25.730Z,59.49
2019-05-05T02:01:55.313Z,59.32
2019-05-05T02:04:25.158Z,59.54
2019-05-05T02:06:55.835Z,59.99
2019-05-05T02:09:25.330Z,60.17
2019-05-05T02:11:55.022Z,59.79
2019-05-05T02:14:24.988Z,59.91
2019-05-05T02:16:54.849Z,59.74
2019-05-05T02:19:25.151Z,59.66
2019-05-05T02:21:55.119Z,59.79
2019-05-05T02:24:25.285Z,59.70
2019-05-05T02:26:54.938Z,59.58
2019-05-05T02:29:35.340Z,59.27
2019-05-05T02:32:26.032Z,59.24
2019-05-05T02:34:58.036Z,59.57
2019-05-05T02:37:27.646Z,60.07
2019-05-05T02:40:02.981Z,60.78
2019-05-05T02:42:28.500Z,60.98
2019-05-05T02:45:00.838Z,60.91
2019-05-05T02:47:54.884Z,60.78
2019-05-05T02:50:27.351Z,59.96
2019-05-05T02:52:58.747Z,59.77
2019-05-05T02:55:28.527Z,59.72
2019-05-05T02:57:58.043Z,60.10
2019-05-05T03:00:45.755Z,59.99
2019-05-05T03:03:15.333Z,60.40
2019-05-05T03:05:44.915Z,60.46
2019-05-05T03:08:14.489Z,60.39
2019-05-05T03:10:44.394Z,60.46
2019-05-05T03:13:14.981Z,60.76
2019-05-05T03:15:56.920Z,60.84
2019-05-05T03:18:26.495Z,60.80
2019-05-05T03:21:04.401Z,60.81
2019-05-05T03:23:27.561Z,60.88
2019-05-05T03:25:57.124Z,61.33
2019-05-05T03:28:28.656Z,61.51
2019-05-05T03:30:58.179Z,61.58
2019-05-05T03:33:27.690Z,61.64
2019-05-05T03:35:57.305Z,61.90
2019-05-05T03:38:26.898Z,62.04
2019-05-05T03:40:58.136Z,61.98
2019-05-05T03:43:31.579Z,61.86
2019-05-05T03:46:04.444Z,61.50
2019-05-05T03:48:34.653Z,62.25
2019-05-05T03:51:17.478Z,62.16
2019-05-05T03:53:35.617Z,62.07
2019-05-05T03:56:05.209Z,61.89
2019-05-05T03:58:34.777Z,61.29
2019-05-05T04:01:32.233Z,61.27
2019-05-05T04:04:20.817Z,61.09
2019-05-05T04:06:51.422Z,60.73
2019-05-05T04:09:21.090Z,60.70
2019-05-05T04:11:53.787Z,60.04
2019-05-05T04:14:25.069Z,59.98
2019-05-05T04:17:08.234Z,60.06
2019-05-05T04:19:39.610Z,59.76
2019-05-05T04:22:09.125Z,59.89
2019-05-05T04:24:38.652Z,59.79
2019-05-05T04:27:08.205Z,59.96
2019-05-05T04:29:37.716Z,60.01
2019-05-05T04:32:07.229Z,60.28
2019-05-05T04:34:36.728Z,60.23
2019-05-05T04:37:06.229Z,60.47
2019-05-05T04:39:36.686Z,60.26
2019-05-05T04:42:06.199Z,59.83
2019-05-05T04:44:35.680Z,59.98
2019-05-05T04:47:11.864Z,60.02
2019-05-05T04:49:47.331Z,60.11
2019-05-05T04:52:17.600Z,59.78
2019-05-05T04:54:51.764Z,59.60
2019-05-05T04:57:21.280Z,59.36
2019-05-05T04:59:54.011Z,59.15
2019-05-05T05:02:35.763Z,59.22
2019-05-05T05:05:11.051Z,59.44
2019-05-05T05:07:40.537Z,59.35
2019-05-05T05:10:10.198Z,58.86
2019-05-05T05:12:39.734Z,59.18
2019-05-05T05:15:09.325Z,59.30
2019-05-05T05:17:47.744Z,59.23
2019-05-05T05:20:17.393Z,59.35
2019-05-05T05:22:46.901Z,59.28
2019-05-05T05:25:16.562Z,59.54
2019-05-05T05:27:46.742Z,60.10
2019-05-05T05:30:16.240Z,60.11
2019-05-05T05:32:45.754Z,60.31
2019-05-05T05:35:15.261Z,60.05
2019-05-05T05:37:44.955Z,60.14
2019-05-05T05:40:37.553Z,60.49
2019-05-05T05:43:09.217Z,60.81
2019-05-05T05:45:47.547Z,61.15
2019-05-05T05:48:23.689Z,61.37
2019-05-05T05:50:55.538Z,61.34
2019-05-05T05:53:25.035Z,61.40
2019-05-05T05:55:54.519Z,61.14
2019-05-05T05:58:24.612Z,61.29
2019-05-05T06:00:55.049Z,61.25
2019-05-05T06:03:24.686Z,61.26
2019-05-05T06:05:54.190Z,61.40
2019-05-05T06:08:24.260Z,61.08
2019-05-05T06:10:54.702Z,60.74
2019-05-05T06:13:24.380Z,60.40
2019-05-05T06:15:53.875Z,60.12
2019-05-05T06:18:24.329Z,60.16
2019-05-05T06:20:54.013Z,59.72
2019-05-05T06:23:24.169Z,59.79
2019-05-05T06:25:55.123Z,59.86
2019-05-05T06:28:25.960Z,59.27
2019-05-05T06:30:55.494Z,58.61
2019-05-05T06:33:25.014Z,58.92
2019-05-05T06:35:54.525Z,58.73
2019-05-05T06:38:25.043Z,58.54
2019-05-05T06:41:16.707Z,57.91
2019-05-05T06:43:55.508Z,57.55
2019-05-05T06:46:28.330Z,58.07
2019-05-05T06:48:57.843Z,57.45
2019-05-05T06:51:27.346Z,57.48
2019-05-05T06:53:56.882Z,57.67
2019-05-05T06:56:26.381Z,57.15
2019-05-05T06:58:55.927Z,57.70
2019-05-05T07:01:25.490Z,58.73
2019-05-05T07:03:55.991Z,58.60
2019-05-05T07:06:25.526Z,58.16
2019-05-05T07:08:55.144Z,58.31
2019-05-05T07:11:24.667Z,59.14
2019-05-05T07:13:54.166Z,59.53
2019-05-05T07:16:24.359Z,59.29
2019-05-05T07:18:56.029Z,58.43
2019-05-05T07:21:27.941Z,59.47
2019-05-05T07:23:57.452Z,58.19
2019-05-05T07:26:27.022Z,57.13
2019-05-05T07:28:56.546Z,55.67
2019-05-05T07:31:26.026Z,57.25
2019-05-05T07:33:55.556Z,57.65
2019-05-05T07:36:41.577Z,57.34
2019-05-05T07:39:11.684Z,58.10
2019-05-05T07:41:41.251Z,56.99
2019-05-05T07:44:25.024Z,55.30
2019-05-05T07:46:43.959Z,54.63
2019-05-05T07:49:14.011Z,54.24
2019-05-05T07:51:44.274Z,55.16
2019-05-05T07:54:14.600Z,54.29
2019-05-05T07:56:45.229Z,54.18
2019-05-05T07:59:14.837Z,53.62
2019-05-05T08:01:46.777Z,52.74
2019-05-05T08:04:15.612Z,54.98
2019-05-05T08:06:45.187Z,53.89
2019-05-05T08:09:14.795Z,54.14
2019-05-05T08:11:44.306Z,52.64
2019-05-05T08:14:14.583Z,53.01
2019-05-05T08:16:53.632Z,52.70
2019-05-05T08:19:44.980Z,51.66
2019-05-05T08:22:14.574Z,50.51
2019-05-05T08:25:01.274Z,51.28
2019-05-05T08:27:40.699Z,50.95
2019-05-05T08:30:17.800Z,50.09
2019-05-05T08:32:47.811Z,50.47
2019-05-05T08:35:17.453Z,49.36
2019-05-05T08:37:47.124Z,48.17
2019-05-05T08:40:16.858Z,48.91
2019-05-05T08:42:46.381Z,47.38
2019-05-05T08:45:16.031Z,49.51
2019-05-05T08:47:46.608Z,47.51
2019-05-05T08:50:16.943Z,47.57
2019-05-05T08:52:46.442Z,47.33
2019-05-05T08:55:15.987Z,48.28
2019-05-05T08:57:45.475Z,48.45
2019-05-05T09:00:15.094Z,46.21
2019-05-05T09:02:44.592Z,45.91
2019-05-05T09:05:14.557Z,47.88
2019-05-05T09:07:44.258Z,48.40
2019-05-05T09:10:14.329Z,49.37
2019-05-05T09:12:44.919Z,49.48
2019-05-05T09:15:15.246Z,49.86
2019-05-05T09:17:44.755Z,49.01
2019-05-05T09:20:14.502Z,49.56
2019-05-05T09:22:45.086Z,49.52
2019-05-05T09:25:23.972Z,50.29
2019-05-05T09:27:56.217Z,49.27
2019-05-05T09:30:36.140Z,50.29
2019-05-05T09:33:05.761Z,51.00
2019-05-05T09:35:35.625Z,51.00
2019-05-05T09:38:05.261Z,51.68
2019-05-05T09:40:39.892Z,52.66
2019-05-05T09:43:10.058Z,52.86
2019-05-05T09:45:40.784Z,53.75
2019-05-05T09:48:10.423Z,53.93
2019-05-05T09:50:40.432Z,54.46
2019-05-05T09:53:09.970Z,53.45
2019-05-05T09:55:39.484Z,51.92
2019-05-05T09:58:08.984Z,50.78
2019-05-05T10:00:41.122Z,50.32
2019-05-05T10:03:10.656Z,50.46
2019-05-05T10:05:40.241Z,49.02
2019-05-05T10:08:09.752Z,46.93
2019-05-05T10:10:39.261Z,50.06
2019-05-05T10:13:08.761Z,49.17
2019-05-05T10:15:38.285Z,49.67
2019-05-05T10:18:07.785Z,48.24
2019-05-05T10:20:37.308Z,47.93
2019-05-05T10:23:06.819Z,46.67
2019-05-05T10:25:44.702Z,47.04
2019-05-05T10:28:14.792Z,45.24
2019-05-05T10:30:44.356Z,45.63
2019-05-05T10:33:14.360Z,46.93
2019-05-05T10:35:43.935Z,45.74
2019-05-05T10:38:14.348Z,45.94
2019-05-05T10:40:44.747Z,44.65
2019-05-05T10:43:14.936Z,43.70
2019-05-05T10:45:44.544Z,44.63
2019-05-05T10:48:14.529Z,43.14
2019-05-05T10:50:45.139Z,43.11
2019-05-05T10:53:14.705Z,44.15
2019-05-05T10:55:45.002Z,43.55
2019-05-05T10:58:14.731Z,45.48
2019-05-05T11:00:55.809Z,43.61
2019-05-05T11:03:25.385Z,44.42
2019-05-05T11:05:54.890Z,43.05
2019-05-05T11:08:24.651Z,43.65
2019-05-05T11:10:54.201Z,43.70
2019-05-05T11:13:26.603Z,44.29
2019-05-05T11:15:56.377Z,44.41
2019-05-05T11:18:26.017Z,44.17
2019-05-05T11:20:55.678Z,45.00
2019-05-05T11:23:26.205Z,45.33
2019-05-05T11:25:55.735Z,46.33
2019-05-05T11:28:25.298Z,46.74
2019-05-05T11:30:54.861Z,48.03
2019-05-05T11:33:49.371Z,47.43
2019-05-05T11:36:28.557Z,46.72
2019-05-05T11:38:58.155Z,46.59
2019-05-05T11:41:27.723Z,47.04
2019-05-05T11:43:57.338Z,46.39
2019-05-05T11:46:26.860Z,46.62
2019-05-05T11:48:56.388Z,46.96
2019-05-05T11:51:25.905Z,47.10
2019-05-05T11:53:55.427Z,43.86
2019-05-05T11:56:25.901Z,45.40
2019-05-05T11:58:55.447Z,44.28
2019-05-05T12:01:24.954Z,44.18
2019-05-05T12:03:55.547Z,45.93
2019-05-05T12:06:26.034Z,45.29
2019-05-05T12:08:55.547Z,46.60
2019-05-05T12:11:25.092Z,45.58
2019-05-05T12:13:54.750Z,45.55
2019-05-05T12:16:31.966Z,46.59
2019-05-05T12:19:04.771Z,46.04
2019-05-05T12:21:34.301Z,46.73
2019-05-05T12:24:09.045Z,45.61
2019-05-05T12:26:57.589Z,44.59
2019-05-05T12:29:29.844Z,45.03
2019-05-05T12:31:59.363Z,44.80
2019-05-05T12:34:28.948Z,43.30
2019-05-05T12:36:58.464Z,43.88
2019-05-05T12:39:28.071Z,43.59
2019-05-05T12:41:57.564Z,44.97
2019-05-05T12:44:34.082Z,45.37
2019-05-05T12:47:11.334Z,44.32
2019-05-05T12:49:40.953Z,44.45
2019-05-05T12:52:10.524Z,46.54
2019-05-05T12:54:40.100Z,48.06
2019-05-05T12:57:09.652Z,47.04
2019-05-05T12:59:39.220Z,46.13
2019-05-05T13:02:08.998Z,45.62
2019-05-05T13:04:38.559Z,45.90
2019-05-05T13:07:08.438Z,44.80
2019-05-05T13:09:38.128Z,44.73
2019-05-05T13:12:07.676Z,43.93
2019-05-05T13:14:37.288Z,42.92
2019-05-05T13:17:07.934Z,44.21
2019-05-05T13:19:47.559Z,45.66
2019-05-05T13:22:36.248Z,47.66
2019-05-05T13:25:24.372Z,47.89
2019-05-05T13:27:57.189Z,46.61
2019-05-05T13:30:25.745Z,46.61
2019-05-05T13:32:55.275Z,46.04
2019-05-05T13:35:24.793Z,45.23
2019-05-05T13:37:54.969Z,45.68
2019-05-05T13:40:24.579Z,45.67
2019-05-05T13:42:54.680Z,43.94
2019-05-05T13:45:43.644Z,42.18
2019-05-05T13:48:14.037Z,41.58
2019-05-05T13:50:48.307Z,40.38
2019-05-05T13:53:17.826Z,39.98
2019-05-05T13:55:47.494Z,41.20
2019-05-05T13:58:17.031Z,40.86
2019-05-05T14:00:50.774Z,40.60
2019-05-05T14:03:20.321Z,41.90
2019-05-05T14:05:50.410Z,43.06
2019-05-05T14:08:20.061Z,42.43
2019-05-05T14:10:49.559Z,41.51
2019-05-05T14:13:19.125Z,41.87
2019-05-05T14:15:49.595Z,41.04
2019-05-05T14:18:19.137Z,41.75
2019-05-05T14:20:48.862Z,41.73
2019-05-05T14:23:19.090Z,40.72
2019-05-05T14:25:48.605Z,41.61
2019-05-05T14:28:18.346Z,40.91
2019-05-05T14:30:57.044Z,40.64
2019-05-05T14:33:34.200Z,41.36
2019-05-05T14:36:24.440Z,42.27
2019-05-05T14:38:56.195Z,41.73
2019-05-05T14:41:25.754Z,42.20
2019-05-05T14:43:56.559Z,43.01
2019-05-05T14:46:26.152Z,43.17
2019-05-05T14:48:55.671Z,42.33
2019-05-05T14:51:25.170Z,42.47
2019-05-05T14:53:54.710Z,42.94
2019-05-05T14:56:35.717Z,43.62
2019-05-05T14:58:55.643Z,43.15
2019-05-05T15:01:25.146Z,42.58
2019-05-05T15:03:54.671Z,42.39
2019-05-05T15:06:31.951Z,40.85
2019-05-05T15:09:19.228Z,42.78
2019-05-05T15:12:06.628Z,42.87
2019-05-05T15:14:36.159Z,42.01
2019-05-05T15:17:05.738Z,40.87
2019-05-05T15:19:35.244Z,40.04
2019-05-05T15:22:05.540Z,41.24
2019-05-05T15:24:35.078Z,41.64
2019-05-05T15:27:04.637Z,43.01
2019-05-05T15:29:34.496Z,46.73
2019-05-05T15:32:04.397Z,48.67
2019-05-05T15:34:34.393Z,48.34
2019-05-05T15:37:04.068Z,49.25
2019-05-05T15:39:33.739Z,49.58
2019-05-05T15:42:04.596Z,49.06
2019-05-05T15:44:34.551Z,50.33
2019-05-05T15:47:04.088Z,50.25
2019-05-05T15:49:33.642Z,49.91
2019-05-05T15:52:04.561Z,49.79
2019-05-05T15:54:34.367Z,50.95
2019-05-05T15:57:07.844Z,48.73
2019-05-05T15:59:35.089Z,48.53
2019-05-05T16:02:04.672Z,47.99
2019-05-05T16:04:34.234Z,47.81
2019-05-05T16:07:04.572Z,47.59
2019-05-05T16:09:34.225Z,45.91
2019-05-05T16:12:03.899Z,46.51
2019-05-05T16:14:35.905Z,45.35
2019-05-05T16:17:24.471Z,46.15
2019-05-05T16:20:00.509Z,45.50
2019-05-05T16:22:34.652Z,45.36
2019-05-05T16:25:11.194Z,46.13
2019-05-05T16:27:41.384Z,46.07
2019-05-05T16:30:14.441Z,45.10
2019-05-05T16:32:44.063Z,46.29
2019-05-05T16:35:14.468Z,46.25
2019-05-05T16:37:44.309Z,46.87
2019-05-05T16:40:17.554Z,46.11
2019-05-05T16:42:47.086Z,46.42
2019-05-05T16:45:17.275Z,46.27
2019-05-05T16:47:46.786Z,46.01
2019-05-05T16:50:17.364Z,46.17
2019-05-05T16:53:01.133Z,45.68
2019-05-05T16:55:46.743Z,46.14
2019-05-05T16:58:16.346Z,45.07
2019-05-05T17:00:45.878Z,45.39
2019-05-05T17:03:15.401Z,44.49
2019-05-05T17:05:46.858Z,44.08
2019-05-05T17:08:16.147Z,44.65
2019-05-05T17:10:45.682Z,44.05
2019-05-05T17:13:34.537Z,43.62
2019-05-05T17:16:22.140Z,43.48
2019-05-05T17:19:04.445Z,44.20
2019-05-05T17:21:53.624Z,43.38
2019-05-05T17:24:24.009Z,42.90
2019-05-05T17:26:54.979Z,42.27
2019-05-05T17:29:24.546Z,42.39
2019-05-05T17:31:54.234Z,42.43
2019-05-05T17:34:24.714Z,42.08
2019-05-05T17:36:55.307Z,42.27
2019-05-05T17:39:26.545Z,42.19
2019-05-05T17:42:14.117Z,41.79
2019-05-05T17:45:14.645Z,41.91
2019-05-05T17:47:48.724Z,41.32
2019-05-05T17:50:37.143Z,42.37
2019-05-05T17:53:23.597Z,41.84
2019-05-05T17:55:54.099Z,41.75
2019-05-05T17:58:24.706Z,41.95
2019-05-05T18:00:57.983Z,41.93
2019-05-05T18:03:28.058Z,41.69
2019-05-05T18:06:14.332Z,41.64
2019-05-05T18:08:53.956Z,42.34
2019-05-05T18:11:28.874Z,42.47
2019-05-05T18:14:03.942Z,42.35
2019-05-05T18:16:33.926Z,42.29
2019-05-05T18:19:04.506Z,42.02
2019-05-05T18:21:34.807Z,42.34
2019-05-05T18:24:04.515Z,42.13
2019-05-05T18:26:34.251Z,42.23
2019-05-05T18:29:04.036Z,42.47
2019-05-05T18:31:33.778Z,42.31
2019-05-05T18:34:03.939Z,42.58
2019-05-05T18:36:33.723Z,42.28
2019-05-05T18:39:04.460Z,42.89
2019-05-05T18:41:50.713Z,43.13
2019-05-05T18:44:24.494Z,43.26
2019-05-05T18:47:14.530Z,43.20
2019-05-05T18:49:42.048Z,43.62
2019-05-05T18:52:13.691Z,43.82
2019-05-05T18:54:43.623Z,44.37
2019-05-05T18:57:13.344Z,44.68
2019-05-05T18:59:44.706Z,44.90
2019-05-05T19:02:31.953Z,45.21
2019-05-05T19:05:11.395Z,45.23
2019-05-05T19:07:55.249Z,45.49
2019-05-05T19:10:16.198Z,45.89
2019-05-05T19:12:45.765Z,45.80
2019-05-05T19:15:15.332Z,45.76
2019-05-05T19:17:44.847Z,45.88
2019-05-05T19:20:39.380Z,46.28
2019-05-05T19:23:08.896Z,46.52
2019-05-05T19:25:38.424Z,46.44
2019-05-05T19:28:07.970Z,46.50
2019-05-05T19:30:37.511Z,46.37
2019-05-05T19:33:07.043Z,46.31
2019-05-05T19:35:44.184Z,46.74
2019-05-05T19:38:07.829Z,46.77
2019-05-05T19:40:37.394Z,47.02
2019-05-05T19:43:06.985Z,46.85
2019-05-05T19:45:36.523Z,46.83
2019-05-05T19:48:06.205Z,46.87
2019-05-05T19:50:41.857Z,47.06
2019-05-05T19:53:26.576Z,47.46
2019-05-05T19:55:56.272Z,47.51
2019-05-05T19:58:26.869Z,47.72
2019-05-05T20:01:00.451Z,47.81
2019-05-05T20:03:30.189Z,47.72
2019-05-05T20:05:59.823Z,47.70
2019-05-05T20:08:40.546Z,48.21
2019-05-05T20:11:00.633Z,48.47
2019-05-05T20:13:30.185Z,48.26
2019-05-05T20:16:21.759Z,48.78
2019-05-05T20:18:51.287Z,48.52
2019-05-05T20:21:20.848Z,48.57
2019-05-05T20:23:50.385Z,48.80
2019-05-05T20:26:19.935Z,48.58
2019-05-05T20:28:49.478Z,48.81
2019-05-05T20:31:19.007Z,48.59
2019-05-05T20:34:10.415Z,48.74
2019-05-05T20:36:58.975Z,48.56
2019-05-05T20:39:28.568Z,48.78
2019-05-05T20:41:58.091Z,48.54
2019-05-05T20:44:27.616Z,48.81
2019-05-05T20:46:57.128Z,48.52
2019-05-05T20:49:26.655Z,48.32
2019-05-05T20:51:56.178Z,48.35
2019-05-05T20:54:25.745Z,48.42
2019-05-05T20:56:55.255Z,48.74
2019-05-05T20:59:30.520Z,48.42
2019-05-05T21:01:55.979Z,48.50
2019-05-05T21:04:25.583Z,48.37
2019-05-05T21:06:55.075Z,48.97
2019-05-05T21:09:24.950Z,48.91
2019-05-05T21:11:54.947Z,48.79
2019-05-05T21:14:31.992Z,48.84
2019-05-05T21:16:55.654Z,49.04
2019-05-05T21:19:25.541Z,48.71
2019-05-05T21:21:56.953Z,48.12
2019-05-05T21:24:26.454Z,48.72
2019-05-05T21:27:00.932Z,49.33
2019-05-05T21:29:39.542Z,49.42
2019-05-05T21:32:01.709Z,49.37
2019-05-05T21:34:31.253Z,49.97
2019-05-05T21:37:00.753Z,49.86
2019-05-05T21:39:30.265Z,50.12
2019-05-05T21:41:59.784Z,50.04
2019-05-05T21:44:29.258Z,50.27
2019-05-05T21:46:59.294Z,50.17
2019-05-05T21:49:28.840Z,50.25
2019-05-05T21:52:14.362Z,50.37
2019-05-05T21:55:13.898Z,50.03
2019-05-05T21:57:54.023Z,50.26
2019-05-05T22:00:41.387Z,50.47
2019-05-05T22:03:14.192Z,50.80
2019-05-05T22:05:43.694Z,50.78
2019-05-05T22:08:14.397Z,51.57
2019-05-05T22:10:43.965Z,51.85
2019-05-05T22:13:14.252Z,52.79
2019-05-05T22:15:43.748Z,52.96
2019-05-05T22:18:14.441Z,53.12
2019-05-05T22:20:48.816Z,52.89
2019-05-05T22:23:18.304Z,52.83
2019-05-05T22:25:47.817Z,52.81
2019-05-05T22:28:17.365Z,53.02
2019-05-05T22:30:46.889Z,52.88
2019-05-05T22:33:16.409Z,53.06
2019-05-05T22:35:45.941Z,53.16
2019-05-05T22:38:15.467Z,53.42
2019-05-05T22:40:44.994Z,53.12
2019-05-05T22:43:14.847Z,53.20
2019-05-05T22:45:45.131Z,53.30
2019-05-05T22:48:14.743Z,53.67
2019-05-05T22:50:44.264Z,52.99
2019-05-05T22:53:16.137Z,52.77
2019-05-05T22:55:46.321Z,52.97
2019-05-05T22:58:15.831Z,52.92
2019-05-05T23:00:45.410Z,52.52
2019-05-05T23:03:24.388Z,52.68
2019-05-05T23:06:00.767Z,52.92
2019-05-05T23:08:30.274Z,52.96
2019-05-05T23:10:59.770Z,53.14
2019-05-05T23:13:29.261Z,53.27
2019-05-05T23:16:27.090Z,54.02
2019-05-05T23:18:57.573Z,54.05
2019-05-05T23:21:35.791Z,53.94
2019-05-05T23:24:24.312Z,53.92
2019-05-05T23:26:54.775Z,53.94
2019-05-05T23:29:26.340Z,54.57
2019-05-05T23:31:55.638Z,54.78
2019-05-05T23:34:25.233Z,54.69
2019-05-05T23:36:54.736Z,54.67
2019-05-05T23:39:25.321Z,54.78
2019-05-05T23:41:54.911Z,54.84
2019-05-05T23:44:24.395Z,54.63
2019-05-05T23:46:54.003Z,54.86
2019-05-05T23:49:24.199Z,55.03
2019-05-05T23:51:54.814Z,55.36
2019-05-05T23:54:24.861Z,55.30
2019-05-05T23:56:54.404Z,55.09
2019-05-05T23:59:24.243Z,55.16
